»·PEaware :: N615LG KPOC-P20

N615LG :: KPOC-P20

FLIGHT INFORMATION

Flight Status: Arrived
Operator: Privately registered:
United States
More flights under this callsign
Pilot: Anonymous 2051 (2051)
Aircraft: Unknown
(EVOT)
More flights by this aircraft type
Origin: KPOC Brackett
United States
Destination: P20 Avi Suquilla
United States
More flights between these airports :: More routes between these airports
Route: PRADO V16 PDZ V186 NIKKL V64 TRM
File this flight plan on PilotEdge
Remarks: ODP or Will take vectors to v264 due to high climb rate.
Altitude:
(Current/Filed)
25,000ft
Speed:
(Current/Filed)
200kts
Departed: 16-Jul-23 08:21 PM
Arrived: 16-Jul-23 09:18 PM
Distance/Time
Traveled:
174nm/0:56
Distance/Time
To Go:
Arrived

Flight Plot

Page will automatically refresh every two minutes.

Flight plan parsing failed; only flown route is shown


Map Options




Map Legend


Flown Route
Filed Route
Departure Airport
Arrival Airport
Navaid (VOR, NDB)
Fix

Horizontal Profiles

Position Reports

Time Latitude Longitude Heading Altitude Ground
Speed
16-Jul-23 19:36 34.089630 -117.775277 89 1003ft 0kts
16-Jul-23 19:37 34.089630 -117.775277 89 1003ft 0kts
16-Jul-23 19:38 34.089630 -117.775277 89 1003ft 0kts
16-Jul-23 19:39 34.089630 -117.775277 89 1003ft 0kts
16-Jul-23 19:40 34.089630 -117.775277 89 1003ft 0kts
16-Jul-23 19:41 34.089630 -117.775277 89 1003ft 0kts
16-Jul-23 19:42 34.089630 -117.775277 89 1003ft 0kts
16-Jul-23 19:43 34.089630 -117.775277 89 1003ft 0kts
16-Jul-23 19:44 34.089630 -117.775277 89 1003ft 0kts
16-Jul-23 19:45 34.089630 -117.775277 89 1003ft 0kts
16-Jul-23 19:46 34.089630 -117.775277 89 1003ft 0kts
16-Jul-23 19:47 34.089630 -117.775277 89 1003ft 0kts
16-Jul-23 19:48 34.089630 -117.775277 89 1003ft 0kts
16-Jul-23 19:49 34.089630 -117.775277 89 1003ft 0kts
16-Jul-23 19:50 34.089630 -117.775277 89 1003ft 0kts
16-Jul-23 19:51 34.089630 -117.775277 89 1003ft 0kts
16-Jul-23 19:52 34.089630 -117.775277 89 1003ft 0kts
16-Jul-23 19:53 34.089630 -117.775277 89 1003ft 0kts
16-Jul-23 19:54 34.089630 -117.775277 89 1003ft 0kts
16-Jul-23 19:55 34.089630 -117.775277 89 1003ft 0kts
16-Jul-23 19:56 34.089630 -117.775277 89 1003ft 0kts
16-Jul-23 19:57 34.089630 -117.775277 89 1003ft 0kts
16-Jul-23 19:58 34.089630 -117.775277 89 1003ft 0kts
16-Jul-23 19:59 34.089630 -117.775277 89 1003ft 0kts
16-Jul-23 20:00 34.089630 -117.775277 89 1003ft 0kts
16-Jul-23 20:01 34.089630 -117.775277 89 1003ft 0kts
16-Jul-23 20:02 34.089630 -117.775277 89 1003ft 0kts
16-Jul-23 20:03 34.089630 -117.775277 89 1003ft 0kts
16-Jul-23 20:04 34.089630 -117.775277 89 1003ft 0kts
16-Jul-23 20:05 34.089630 -117.775277 89 1003ft 0kts
16-Jul-23 20:06 34.089630 -117.775277 89 1003ft 0kts
16-Jul-23 20:07 34.089630 -117.775277 89 1003ft 0kts
16-Jul-23 20:08 34.089630 -117.775277 89 1003ft 0kts
16-Jul-23 20:09 34.089630 -117.775277 89 1003ft 0kts
16-Jul-23 20:10 34.089630 -117.775277 89 1003ft 0kts
16-Jul-23 20:12 34.089630 -117.775277 89 1003ft 0kts
16-Jul-23 20:13 34.089630 -117.775277 89 1003ft 0kts
16-Jul-23 20:14 34.089630 -117.775277 89 1003ft 0kts
16-Jul-23 20:15 34.089630 -117.775277 89 1003ft 0kts
16-Jul-23 20:16 34.090163 -117.774964 32 1004ft 7kts
16-Jul-23 20:17 34.090424 -117.774649 8 1004ft 0kts
16-Jul-23 20:18 34.090424 -117.774649 8 1004ft 0kts
16-Jul-23 20:19 34.090424 -117.774649 8 1004ft 0kts
16-Jul-23 20:20 34.091011 -117.775318 275 1004ft 8kts
16-Jul-23 20:21 34.092520 -117.801092 261 1818ft 97kts
16-Jul-23 20:22 34.071621 -117.797993 140 3257ft 113kts
16-Jul-23 20:23 34.042958 -117.781414 177 4286ft 113kts
16-Jul-23 20:24 33.997470 -117.780906 178 6118ft 205kts
16-Jul-23 20:25 33.936421 -117.781791 181 7272ft 206kts
16-Jul-23 20:26 33.908245 -117.742878 59 7073ft 198kts
16-Jul-23 20:27 33.922096 -117.687169 94 7319ft 186kts
16-Jul-23 20:28 33.919952 -117.610209 92 7305ft 261kts
16-Jul-23 20:29 33.912028 -117.528397 133 7285ft 239kts
16-Jul-23 20:30 33.861175 -117.482404 144 8071ft 225kts
16-Jul-23 20:31 33.808272 -117.437820 142 9645ft 242kts
16-Jul-23 20:32 33.756679 -117.394664 139 13113ft 186kts
16-Jul-23 20:33 33.731495 -117.362920 96 16688ft 121kts
16-Jul-23 20:34 33.727208 -117.321226 96 19431ft 133kts
16-Jul-23 20:35 33.723326 -117.276143 97 22082ft 144kts
16-Jul-23 20:36 33.719327 -117.227617 98 24485ft 153kts
16-Jul-23 20:36 33.715606 -117.182368 98 25870ft 190kts
16-Jul-23 20:38 33.707928 -117.089367 98 26318ft 287kts
16-Jul-23 20:39 33.700222 -116.996221 97 26317ft 325kts
16-Jul-23 20:40 33.691729 -116.894285 98 26313ft 337kts
16-Jul-23 20:41 33.682607 -116.786059 98 26298ft 312kts
16-Jul-23 20:41 33.675399 -116.701253 98 26267ft 301kts
16-Jul-23 20:42 33.666906 -116.602323 98 26266ft 296kts
16-Jul-23 20:43 33.658452 -116.504361 98 26245ft 297kts
16-Jul-23 20:45 33.648340 -116.388658 98 26205ft 300kts
16-Jul-23 20:46 33.639499 -116.288459 98 26173ft 301kts
16-Jul-23 20:46 33.631851 -116.202567 98 26149ft 302kts
16-Jul-23 20:47 33.638302 -116.101847 81 26059ft 308kts
16-Jul-23 20:48 33.655989 -115.999344 81 25030ft 310kts
16-Jul-23 20:49 33.671765 -115.907787 80 23915ft 299kts
16-Jul-23 20:51 33.691090 -115.795152 81 22514ft 292kts
16-Jul-23 20:51 33.704560 -115.716215 81 21520ft 287kts
16-Jul-23 20:52 33.720317 -115.623389 81 20088ft 279kts
16-Jul-23 20:53 33.735451 -115.533900 81 18572ft 265kts
16-Jul-23 20:54 33.749481 -115.450542 81 16977ft 242kts
16-Jul-23 20:55 33.762187 -115.374746 81 15243ft 224kts
16-Jul-23 20:56 33.774141 -115.303158 82 13535ft 215kts
16-Jul-23 20:57 33.785897 -115.232575 82 12072ft 218kts
16-Jul-23 20:58 33.797834 -115.160605 82 10787ft 223kts
16-Jul-23 20:59 33.809965 -115.087141 81 9553ft 224kts
16-Jul-23 21:00 33.822133 -115.013251 81 8819ft 227kts
16-Jul-23 21:01 33.834498 -114.937720 81 8192ft 236kts
16-Jul-23 21:02 33.847227 -114.859638 80 7615ft 234kts
16-Jul-23 21:03 33.859323 -114.785371 81 7609ft 211kts
16-Jul-23 21:04 33.869843 -114.720568 81 7566ft 189kts
16-Jul-23 21:05 33.887586 -114.661122 71 7392ft 188kts
16-Jul-23 21:06 33.906391 -114.598990 71 7046ft 211kts
16-Jul-23 21:07 33.925664 -114.535127 71 5910ft 193kts
16-Jul-23 21:08 33.942560 -114.479133 72 5432ft 154kts
16-Jul-23 21:09 33.958020 -114.427718 71 4976ft 172kts
16-Jul-23 21:10 33.976665 -114.373447 40 4031ft 173kts
16-Jul-23 21:11 34.019257 -114.345704 28 3101ft 173kts
16-Jul-23 21:12 34.060594 -114.320334 28 2234ft 160kts
16-Jul-23 21:13 34.099518 -114.297404 29 1424ft 146kts
16-Jul-23 21:14 34.129952 -114.274222 47 1134ft 125kts
16-Jul-23 21:15 34.157530 -114.246809 54 1281ft 124kts
16-Jul-23 21:16 34.167589 -114.256836 210 816ft 101kts
16-Jul-23 21:17 34.148532 -114.268618 211 453ft 33kts
16-Jul-23 21:18 34.147349 -114.269343 29 451ft 21kts
16-Jul-23 21:19 34.151557 -114.268652 295 453ft 17kts
16-Jul-23 21:20 34.152975 -114.271289 31 447ft 3kts
16-Jul-23 21:21 34.153134 -114.271459 299 447ft 0kts
16-Jul-23 21:22 34.153134 -114.271458 299 447ft 0kts

Navigation Log

Ident Type
Flight plan parsing failed, navigation log unavailable